Time;durP1;ratioP1;P1;durP2;ratioP2;P2;SDS_P1;SDS_P2;PMS_P1;PMS_P2;Temp;Humidity;BMP_temperature;BMP_pressure;BME280_temperature;BME280_humidity;BME280_pressure;Samples;Min_cycle;Max_cycle;Signal;HPM_P1;HPM_P2
2022/12/26 00:01:52;;;;;;;0.20;0.20;;;;;;;9.82;81.58;95539.41;4316536;33;20181;-64
2022/12/26 00:04:18;;;;;;;0.60;0.60;;;;;;;9.76;81.02;95535.25;4315614;33;20178;-64
2022/12/26 00:06:44;;;;;;;0.30;0.30;;;;;;;9.79;81.15;95535.47;4338537;32;20191;-64
2022/12/26 00:09:10;;;;;;;0.50;0.50;;;;;;;9.82;80.57;95540.19;4330021;32;20184;-64
2022/12/26 00:11:35;;;;;;;0.30;0.30;;;;;;;9.80;81.29;95541.56;4349283;32;20196;-63
2022/12/26 00:14:07;;;;;;;0.40;0.40;;;;;;;9.59;82.01;95541.78;4357175;32;20216;-63
2022/12/26 00:16:33;;;;;;;1.07;0.67;;;;;;;9.61;80.86;95546.78;4328228;32;20217;-64
2022/12/26 00:18:58;;;;;;;0.60;0.60;;;;;;;9.56;81.35;95542.34;4340775;32;20251;-63
2022/12/26 00:21:26;;;;;;;0.70;0.70;;;;;;;9.65;80.95;95547.81;4317820;33;20286;-64
2022/12/26 00:23:52;;;;;;;0.30;0.30;;;;;;;9.63;81.09;95542.81;4344045;32;20259;-64
2022/12/26 00:26:19;;;;;;;0.20;0.20;;;;;;;9.67;81.20;95548.31;4324680;32;20232;-64
2022/12/26 00:28:45;;;;;;;0.50;0.50;;;;;;;9.69;80.72;95537.44;4343283;32;20189;-64
2022/12/26 00:31:17;;;;;;;0.60;0.60;;;;;;;9.60;80.53;95539.91;4343162;32;20197;-64
2022/12/26 00:33:43;;;;;;;0.40;0.40;;;;;;;9.58;80.30;95544.69;4343375;32;20181;-63
2022/12/26 00:36:14;;;;;;;0.33;0.33;;;;;;;9.61;80.24;95552.09;4343161;32;20228;-64
2022/12/26 00:38:41;;;;;;;0.20;0.20;;;;;;;9.63;79.88;95548.09;4334617;32;20188;-64
2022/12/26 00:41:07;;;;;;;0.40;0.40;;;;;;;9.76;78.96;95546.66;4344602;32;20234;-64
2022/12/26 00:43:33;;;;;;;0.33;0.33;;;;;;;9.73;78.71;95552.50;4344483;32;20185;-63
2022/12/26 00:45:59;;;;;;;0.30;0.30;;;;;;;9.67;79.08;95550.97;4350677;32;20182;-63
2022/12/26 00:48:24;;;;;;;0.57;0.57;;;;;;;9.71;79.27;95548.56;4345696;33;20194;-64
2022/12/26 00:50:50;;;;;;;0.43;0.43;;;;;;;9.63;78.54;95550.75;4343173;33;20177;-64
2022/12/26 00:53:16;;;;;;;0.30;0.30;;;;;;;9.54;78.95;95551.66;4342922;32;20522;-63
2022/12/26 00:55:41;;;;;;;0.30;0.30;;;;;;;9.58;78.52;95542.84;4340990;33;20190;-64
2022/12/26 00:58:07;;;;;;;0.47;0.43;;;;;;;9.56;78.77;95544.97;4325236;33;20174;-64
2022/12/26 01:00:32;;;;;;;0.27;0.27;;;;;;;9.56;78.32;95550.28;4331757;33;20181;-63
2022/12/26 01:02:57;;;;;;;0.13;0.13;;;;;;;9.68;78.26;95551.78;4332036;32;20252;-63
2022/12/26 01:05:23;;;;;;;0.13;0.13;;;;;;;9.68;77.73;95555.22;4337428;33;20229;-64
2022/12/26 01:07:48;;;;;;;0.30;0.30;;;;;;;9.60;78.08;95564.53;4331772;33;20189;-64
2022/12/26 01:10:14;;;;;;;2.00;0.60;;;;;;;9.53;79.23;95561.47;4327166;33;20185;-63
2022/12/26 01:12:39;;;;;;;0.10;0.10;;;;;;;9.67;78.14;95558.13;4337987;32;20200;-63
2022/12/26 01:15:06;;;;;;;0.03;0.03;;;;;;;9.53;78.26;95564.09;4342334;33;20204;-64
2022/12/26 01:17:32;;;;;;;0.47;0.33;;;;;;;9.46;78.11;95558.34;4322704;33;20190;-63
2022/12/26 01:19:57;;;;;;;0.03;0.03;;;;;;;9.54;77.75;95555.09;4331250;32;20204;-63
2022/12/26 01:22:24;;;;;;;0.60;0.60;;;;;;;9.50;78.26;95564.66;4343755;32;20190;-64
2022/12/26 01:24:53;;;;;;;0.43;0.43;;;;;;;9.52;78.20;95565.19;4334057;32;20232;-64
2022/12/26 01:27:19;;;;;;;0.10;0.10;;;;;;;9.37;78.14;95569.81;4329882;32;20185;-64
2022/12/26 01:29:44;;;;;;;0.30;0.30;;;;;;;9.36;78.70;95570.88;4328353;32;20228;-64
2022/12/26 01:32:10;;;;;;;0.97;0.37;;;;;;;9.29;78.59;95574.66;4330753;32;20219;-64
2022/12/26 01:34:35;;;;;;;0.20;0.20;;;;;;;9.38;78.77;95574.03;4331478;32;20197;-64
2022/12/26 01:37:00;;;;;;;0.20;0.20;;;;;;;9.31;78.74;95571.72;4339355;32;20181;-64
2022/12/26 01:39:25;;;;;;;0.00;0.00;;;;;;;9.35;78.58;95572.75;4346404;32;20178;-64
2022/12/26 01:41:51;;;;;;;0.27;0.27;;;;;;;9.22;78.85;95576.81;4328937;32;20186;-64
2022/12/26 01:44:53;;;;;;;0.27;0.27;;;;;;;9.27;78.70;95578.66;4332525;32;20269;-64
2022/12/26 01:47:20;;;;;;;0.30;0.30;;;;;;;9.22;78.91;95578.69;4331451;32;20260;-64
2022/12/26 01:49:49;;;;;;;0.23;0.23;;;;;;;9.22;78.62;95583.97;4345830;32;20182;-64
2022/12/26 01:52:24;;;;;;;0.60;0.60;;;;;;;9.26;78.74;95585.00;4345393;32;20181;-63
2022/12/26 01:54:52;;;;;;;0.20;0.20;;;;;;;9.28;78.42;95588.16;4331906;32;20247;-64
2022/12/26 01:57:26;;;;;;;0.13;0.13;;;;;;;9.19;78.88;95587.16;4345327;32;20204;-63
2022/12/26 01:59:54;;;;;;;0.40;0.40;;;;;;;9.16;79.09;95595.66;4345633;32;20200;-64
2022/12/26 02:02:20;;;;;;;0.20;0.20;;;;;;;8.99;79.17;95595.28;4331831;32;20193;-64
2022/12/26 02:07:34;;;;;;;0.10;0.10;;;;;;;9.05;79.20;95597.63;4344526;32;20230;-63
2022/12/26 02:10:01;;;;;;;0.33;0.33;;;;;;;9.05;79.06;95599.47;4346129;32;20195;-63
2022/12/26 02:12:31;;;;;;;0.13;0.13;;;;;;;9.00;79.85;95596.84;4333910;32;20189;-63
2022/12/26 02:14:57;;;;;;;0.37;0.37;;;;;;;8.83;80.51;95603.31;4331997;32;20169;-63
2022/12/26 02:17:25;;;;;;;0.43;0.13;;;;;;;8.77;80.65;95596.47;4341604;32;20223;-64
2022/12/26 02:20:04;;;;;;;0.00;0.00;;;;;;;8.79;80.63;95599.62;4355612;32;20188;-64
2022/12/26 02:23:10;;;;;;;0.07;0.07;;;;;;;8.73;80.71;95592.78;4333801;32;20232;-63
2022/12/26 02:25:57;;;;;;;0.20;0.10;;;;;;;8.80;80.61;95588.00;4336959;32;20178;-63
2022/12/26 02:28:59;;;;;;;0.50;0.50;;;;;;;8.67;80.32;95587.81;4343718;32;20180;-64
2022/12/26 02:31:33;;;;;;;0.20;0.13;;;;;;;8.71;80.41;95584.38;4325790;33;20193;-64
2022/12/26 02:34:14;;;;;;;0.30;0.30;;;;;;;8.69;80.31;95591.78;4342952;32;20236;-63
2022/12/26 02:37:19;;;;;;;0.00;0.00;;;;;;;8.73;80.49;95586.75;4342072;32;20190;-64
2022/12/26 02:40:03;;;;;;;0.23;0.23;;;;;;;8.76;80.94;95581.66;4316566;33;20196;-64
2022/12/26 02:42:46;;;;;;;0.10;0.10;;;;;;;8.70;81.10;95584.62;4340153;32;20216;-64
2022/12/26 02:48:19;;;;;;;0.10;0.10;;;;;;;8.73;81.14;95579.56;4344749;32;20192;-64
2022/12/26 03:14:44;;;;;;;0.00;0.00;;;;;;;9.08;77.32;95565.31;4344254;32;20246;-63
2022/12/26 03:17:20;;;;;;;0.13;0.13;;;;;;;9.13;77.92;95565.28;4342811;32;20207;-63
2022/12/26 03:19:59;;;;;;;0.20;0.20;;;;;;;9.07;78.51;95563.72;4343069;32;20214;-63
2022/12/26 03:22:30;;;;;;;0.37;0.37;;;;;;;9.15;77.97;95567.63;4335136;32;20181;-63
2022/12/26 03:27:43;;;;;;;0.00;0.00;;;;;;;9.17;77.75;95571.56;4344052;32;20227;-63
2022/12/26 03:32:56;;;;;;;0.20;0.20;;;;;;;9.18;78.29;95577.66;4343692;32;20241;-63
2022/12/26 03:35:23;;;;;;;0.00;0.00;;;;;;;9.09;77.77;95580.13;4341616;32;20189;-63
2022/12/26 03:37:58;;;;;;;0.00;0.00;;;;;;;9.07;77.66;95581.47;4327079;32;20176;-63
2022/12/26 04:19:24;;;;;;;0.30;0.30;;;;;;;9.11;77.78;95585.12;4336336;32;20211;-62
2022/12/26 04:45:03;;;;;;;0.23;0.23;;;;;;;8.89;78.78;95596.94;4327051;33;20196;-63
2022/12/26 04:47:30;;;;;;;0.17;0.17;;;;;;;8.96;78.63;95612.47;4328660;33;20204;-63
2022/12/26 04:50:11;;;;;;;0.30;0.30;;;;;;;8.88;78.49;95605.16;4329046;33;20178;-62
2022/12/26 04:55:21;;;;;;;0.10;0.10;;;;;;;9.01;77.72;95598.44;4356047;32;20199;-63
2022/12/26 04:57:46;;;;;;;0.03;0.03;;;;;;;9.17;76.89;95603.31;4341644;32;20340;-63
2022/12/26 05:00:12;;;;;;;0.10;0.10;;;;;;;9.20;76.41;95599.34;4335582;32;20182;-63
2022/12/26 05:10:59;;;;;;;3.60;0.63;;;;;;;9.34;75.63;95596.88;4344858;32;20219;-63
2022/12/26 05:13:25;;;;;;;0.00;0.00;;;;;;;9.34;75.55;95595.00;4346770;32;20178;-63
2022/12/26 05:29:30;;;;;;;0.20;0.20;;;;;;;9.36;75.32;95621.16;4329991;32;20300;-62
2022/12/26 05:31:56;;;;;;;0.33;0.20;;;;;;;9.38;75.00;95619.84;4328531;33;20197;-63
2022/12/26 05:34:21;;;;;;;0.30;0.30;;;;;;;9.39;74.78;95624.06;4346284;32;20186;-62
2022/12/26 05:36:50;;;;;;;0.10;0.10;;;;;;;9.28;75.29;95635.81;4345493;32;20276;-62
2022/12/26 05:39:16;;;;;;;0.50;0.30;;;;;;;9.09;77.43;95640.19;4326555;33;20189;-62
2022/12/26 05:41:41;;;;;;;0.07;0.07;;;;;;;9.29;75.74;95632.09;4314356;33;20200;-62
2022/12/26 05:44:07;;;;;;;0.20;0.20;;;;;;;9.32;74.85;95634.19;4339270;32;20200;-62
2022/12/26 05:46:33;;;;;;;0.10;0.10;;;;;;;9.47;74.45;95626.13;4322089;33;20194;-62
2022/12/26 05:48:58;;;;;;;0.50;0.33;;;;;;;9.51;74.29;95626.37;4341500;32;20219;-62
2022/12/26 05:51:24;;;;;;;0.03;0.03;;;;;;;9.42;74.33;95642.03;4345969;32;20190;-62
2022/12/26 05:53:50;;;;;;;0.20;0.20;;;;;;;9.37;74.90;95641.28;4337225;32;20204;-62
2022/12/26 05:56:17;;;;;;;0.00;0.00;;;;;;;9.27;75.24;95636.88;4333804;32;20245;-62
2022/12/26 05:58:42;;;;;;;0.10;0.10;;;;;;;9.29;75.97;95642.69;4338231;32;20188;-62
2022/12/26 06:01:12;;;;;;;0.67;0.37;;;;;;;9.22;75.20;95647.50;4332307;32;20185;-62
2022/12/26 06:03:38;;;;;;;0.50;0.50;;;;;;;9.24;75.36;95640.87;4340217;32;20178;-63
2022/12/26 06:06:05;;;;;;;0.33;0.20;;;;;;;9.32;75.03;95642.13;4345195;32;20182;-63
2022/12/26 06:08:31;;;;;;;0.20;0.20;;;;;;;9.18;75.23;95641.97;4330978;32;20199;-62
2022/12/26 06:10:57;;;;;;;0.03;0.03;;;;;;;9.18;75.88;95641.97;4342654;32;20170;-62
2022/12/26 06:13:23;;;;;;;0.13;0.13;;;;;;;9.15;76.32;95636.44;4345237;32;20178;-63
2022/12/26 06:15:48;;;;;;;0.20;0.20;;;;;;;9.22;75.73;95636.91;4345261;32;20173;-62
2022/12/26 06:18:13;;;;;;;0.00;0.00;;;;;;;9.25;75.50;95628.41;4323497;32;20288;-63
2022/12/26 06:20:39;;;;;;;0.20;0.20;;;;;;;9.35;75.35;95638.16;4342405;32;20212;-62
2022/12/26 06:23:04;;;;;;;0.40;0.40;;;;;;;9.34;75.42;95624.13;4335024;32;20178;-63
2022/12/26 06:25:30;;;;;;;0.27;0.27;;;;;;;9.30;75.13;95626.53;4314022;33;20184;-63
2022/12/26 06:27:55;;;;;;;0.40;0.40;;;;;;;9.37;75.72;95625.41;4334850;32;20176;-63
2022/12/26 06:30:20;;;;;;;0.33;0.33;;;;;;;9.10;76.54;95628.53;4345074;32;20193;-62
2022/12/26 06:32:46;;;;;;;0.30;0.30;;;;;;;9.27;75.59;95628.94;4325597;33;20182;-63
2022/12/26 06:35:11;;;;;;;0.20;0.20;;;;;;;9.20;75.77;95628.44;4316924;32;20205;-62
2022/12/26 06:37:37;;;;;;;0.10;0.10;;;;;;;9.22;76.31;95632.41;4344826;32;20204;-62
2022/12/26 06:40:03;;;;;;;0.27;0.27;;;;;;;9.25;76.22;95628.41;4333733;32;20202;-62
2022/12/26 06:42:28;;;;;;;0.10;0.10;;;;;;;9.17;76.70;95626.34;4342481;32;20245;-62
2022/12/26 06:44:53;;;;;;;0.40;0.40;;;;;;;9.21;76.33;95622.09;4352585;32;20181;-62
2022/12/26 06:47:19;;;;;;;0.23;0.23;;;;;;;8.92;77.21;95616.75;4357685;32;20252;-62
2022/12/26 06:49:44;;;;;;;0.20;0.20;;;;;;;8.89;77.37;95609.38;4339881;32;20181;-62
2022/12/26 06:52:10;;;;;;;0.33;0.33;;;;;;;8.88;77.52;95590.06;4344629;32;20192;-62
2022/12/26 06:54:36;;;;;;;0.40;0.40;;;;;;;8.71;78.21;95594.94;4344457;32;20295;-63
2022/12/26 06:57:02;;;;;;;0.10;0.10;;;;;;;8.82;77.98;95600.94;4343470;32;20185;-62
2022/12/26 06:59:27;;;;;;;0.10;0.10;;;;;;;8.92;77.80;95601.69;4341298;32;20183;-61
2022/12/26 07:01:52;;;;;;;2.10;0.77;;;;;;;9.00;77.27;95607.44;4344163;32;20231;-61
2022/12/26 07:04:17;;;;;;;0.40;0.40;;;;;;;9.13;76.78;95609.47;4336362;32;20177;-61
2022/12/26 07:06:43;;;;;;;0.93;0.57;;;;;;;9.26;76.31;95617.56;4342036;32;20186;-61
2022/12/26 07:09:13;;;;;;;0.20;0.20;;;;;;;9.22;76.26;95619.16;4322630;32;20244;-61
2022/12/26 07:11:40;;;;;;;0.30;0.30;;;;;;;9.37;75.75;95622.75;4333082;32;20186;-61
2022/12/26 07:14:07;;;;;;;0.30;0.30;;;;;;;9.40;75.86;95623.00;4326767;32;20195;-61
2022/12/26 07:16:37;;;;;;;0.10;0.10;;;;;;;9.17;76.63;95627.16;4342493;32;20182;-61
2022/12/26 07:19:03;;;;;;;0.23;0.17;;;;;;;9.38;76.01;95619.84;4326515;32;20186;-61
2022/12/26 07:21:28;;;;;;;0.13;0.13;;;;;;;9.41;75.09;95621.13;4341305;32;20190;-61
2022/12/26 07:23:55;;;;;;;0.20;0.20;;;;;;;9.38;75.65;95614.53;4340534;32;20181;-61
2022/12/26 07:26:21;;;;;;;0.77;0.30;;;;;;;9.42;75.08;95601.53;4314704;33;20256;-61
2022/12/26 07:28:46;;;;;;;0.20;0.20;;;;;;;9.41;75.07;95605.25;4328377;33;20232;-60
2022/12/26 07:31:16;;;;;;;0.53;0.53;;;;;;;9.50;74.75;95614.19;4327836;33;20241;-61
2022/12/26 07:33:41;;;;;;;0.10;0.10;;;;;;;9.56;74.77;95626.31;4320912;32;20260;-61
2022/12/26 07:36:07;;;;;;;0.07;0.07;;;;;;;9.45;75.01;95622.97;4328146;32;20197;-61
2022/12/26 07:38:32;;;;;;;0.30;0.30;;;;;;;9.45;75.92;95624.81;4344281;32;20201;-61
2022/12/26 07:40:58;;;;;;;0.17;0.17;;;;;;;9.32;76.86;95625.47;4337882;32;20195;-61
2022/12/26 07:43:24;;;;;;;0.03;0.03;;;;;;;9.25;77.05;95623.12;4332215;32;20201;-61
2022/12/26 07:45:51;;;;;;;0.30;0.30;;;;;;;9.20;77.17;95629.25;4333254;32;20188;-61
2022/12/26 07:48:16;;;;;;;0.60;0.60;;;;;;;9.20;76.13;95623.16;4333884;32;20190;-61
2022/12/26 07:50:45;;;;;;;0.10;0.10;;;;;;;9.26;75.48;95633.44;4313717;33;20189;-61
2022/12/26 07:53:11;;;;;;;2.37;0.23;;;;;;;9.35;74.47;95633.66;4313457;33;20177;-61
2022/12/26 07:55:36;;;;;;;0.30;0.30;;;;;;;9.29;74.60;95629.44;4314466;33;20244;-61
2022/12/26 07:58:02;;;;;;;0.50;0.50;;;;;;;9.32;74.45;95626.25;4315505;32;20174;-61
2022/12/26 08:00:27;;;;;;;0.03;0.03;;;;;;;9.45;73.64;95638.84;4331175;33;20177;-61
2022/12/26 08:02:52;;;;;;;0.00;0.00;;;;;;;9.45;73.31;95638.84;4330339;33;20185;-61
2022/12/26 08:05:19;;;;;;;0.20;0.20;;;;;;;9.44;73.86;95633.81;4328864;33;20178;-61
2022/12/26 08:07:48;;;;;;;0.00;0.00;;;;;;;9.39;74.14;95634.66;4314522;33;20182;-62
2022/12/26 08:10:14;;;;;;;0.00;0.00;;;;;;;9.36;74.71;95639.72;4327266;33;20208;-61
2022/12/26 08:12:40;;;;;;;0.10;0.10;;;;;;;9.20;74.48;95636.41;4325062;33;20307;-61
2022/12/26 08:15:06;;;;;;;0.53;0.53;;;;;;;9.14;75.04;95633.03;4338899;32;20181;-62
2022/12/26 08:17:31;;;;;;;0.57;0.57;;;;;;;9.09;74.85;95625.09;4343963;32;20177;-61
2022/12/26 08:19:57;;;;;;;0.47;0.47;;;;;;;9.15;74.71;95631.13;4355445;32;20177;-61
2022/12/26 08:22:23;;;;;;;0.30;0.30;;;;;;;9.26;74.11;95630.00;4357303;32;20248;-61
2022/12/26 08:24:48;;;;;;;0.10;0.10;;;;;;;9.34;74.16;95631.28;4325083;32;20170;-61
2022/12/26 08:27:14;;;;;;;0.63;0.63;;;;;;;9.33;74.52;95637.62;4323775;33;20178;-61
2022/12/26 08:29:40;;;;;;;1.80;0.63;;;;;;;9.39;74.91;95631.22;4332282;32;20221;-61
2022/12/26 08:32:05;;;;;;;0.23;0.23;;;;;;;9.51;74.49;95627.16;4339505;32;20180;-61
2022/12/26 08:34:33;;;;;;;0.20;0.20;;;;;;;9.50;74.63;95620.28;4338414;32;20177;-61
2022/12/26 08:36:58;;;;;;;0.30;0.20;;;;;;;9.42;74.79;95628.81;4343946;32;20190;-61
2022/12/26 08:39:24;;;;;;;0.10;0.10;;;;;;;9.45;76.27;95628.25;4337663;32;20196;-61
2022/12/26 08:41:49;;;;;;;0.23;0.23;;;;;;;9.51;75.95;95623.72;4341422;32;20182;-61
2022/12/26 08:44:16;;;;;;;0.20;0.20;;;;;;;9.56;75.57;95624.44;4342523;32;20264;-61
2022/12/26 08:46:43;;;;;;;0.13;0.13;;;;;;;9.63;75.50;95624.13;4346408;32;20196;-61
2022/12/26 08:49:08;;;;;;;0.20;0.20;;;;;;;9.59;75.99;95618.59;4337620;32;20244;-60
2022/12/26 08:51:33;;;;;;;0.30;0.30;;;;;;;9.65;76.20;95616.69;4336469;32;20177;-61
2022/12/26 08:53:59;;;;;;;0.20;0.20;;;;;;;9.63;76.59;95621.47;4345707;32;20209;-62
2022/12/26 08:56:25;;;;;;;0.10;0.10;;;;;;;9.73;75.64;95621.38;4347152;32;20178;-61
2022/12/26 08:58:51;;;;;;;0.13;0.13;;;;;;;9.76;76.63;95615.53;4332644;32;20243;-61
2022/12/26 09:01:19;;;;;;;0.50;0.50;;;;;;;9.82;76.98;95613.59;4331190;32;20181;-61
2022/12/26 09:03:45;;;;;;;0.67;0.63;;;;;;;9.79;77.22;95619.47;4344114;32;20189;-61
2022/12/26 09:06:13;;;;;;;0.50;0.50;;;;;;;9.87;76.72;95613.56;4332170;32;20208;-61
2022/12/26 09:08:39;;;;;;;0.33;0.33;;;;;;;9.95;75.49;95610.31;4331130;33;20193;-62
2022/12/26 09:11:14;;;;;;;1.63;0.90;;;;;;;9.94;75.94;95609.50;4331272;32;20185;-61
2022/12/26 09:13:40;;;;;;;0.30;0.30;;;;;;;9.98;76.24;95604.41;4326261;32;20246;-62
2022/12/26 09:16:21;;;;;;;0.37;0.37;;;;;;;10.04;75.46;95608.59;4346346;32;20190;-61
2022/12/26 09:18:51;;;;;;;0.30;0.10;;;;;;;10.11;75.52;95611.69;4330413;32;20186;-61
2022/12/26 09:21:16;;;;;;;0.67;0.67;;;;;;;10.17;75.80;95607.12;4329795;33;20181;-61
2022/12/26 09:23:42;;;;;;;0.50;0.50;;;;;;;10.25;75.30;95603.87;4330027;32;20186;-62
2022/12/26 09:26:17;;;;;;;0.23;0.20;;;;;;;10.31;74.48;95606.19;4331068;32;20177;-62
2022/12/26 09:28:44;;;;;;;0.07;0.07;;;;;;;10.42;73.78;95600.75;4330651;32;20193;-61
2022/12/26 09:31:12;;;;;;;0.27;0.27;;;;;;;10.48;73.42;95611.00;4337696;32;20227;-61
2022/12/26 09:33:38;;;;;;;0.10;0.10;;;;;;;10.49;73.60;95609.16;4323499;33;20217;-61
2022/12/26 09:36:05;;;;;;;0.30;0.30;;;;;;;10.53;73.83;95615.47;4335867;32;20236;-61
2022/12/26 09:38:31;;;;;;;0.40;0.40;;;;;;;10.57;73.36;95611.97;4337642;32;20261;-61
2022/12/26 09:41:27;;;;;;;0.20;0.20;;;;;;;10.59;73.50;95607.16;4341501;32;20324;-61
2022/12/26 09:43:58;;;;;;;0.30;0.30;;;;;;;10.58;73.98;95602.16;4331030;32;20181;-61
2022/12/26 09:46:56;;;;;;;0.37;0.37;;;;;;;10.65;72.92;95594.59;4346154;32;20192;-62
2022/12/26 09:49:27;;;;;;;0.40;0.40;;;;;;;10.70;72.05;95607.81;4345366;32;20198;-62
2022/12/26 09:51:57;;;;;;;0.27;0.27;;;;;;;10.67;73.22;95619.78;4345645;32;20181;-61
2022/12/26 09:54:33;;;;;;;0.17;0.17;;;;;;;10.72;71.85;95605.66;4342990;32;20207;-61
2022/12/26 09:57:03;;;;;;;0.10;0.10;;;;;;;10.71;72.20;95620.00;4336574;32;20243;-61
2022/12/26 09:59:31;;;;;;;0.33;0.33;;;;;;;10.75;72.00;95613.06;4345349;32;20185;-62
2022/12/26 10:01:56;;;;;;;0.30;0.30;;;;;;;10.74;72.26;95614.12;4333802;32;20181;-61
2022/12/26 10:04:27;;;;;;;0.50;0.50;;;;;;;10.81;71.74;95608.44;4345996;32;20222;-62
2022/12/26 10:07:16;;;;;;;0.30;0.30;;;;;;;10.81;71.45;95611.09;4335869;32;20232;-61
2022/12/26 10:09:58;;;;;;;0.30;0.30;;;;;;;10.80;70.75;95613.00;4337762;32;20182;-62
2022/12/26 10:12:39;;;;;;;0.40;0.40;;;;;;;10.80;70.93;95610.34;4339489;32;20177;-61
2022/12/26 10:15:42;;;;;;;0.30;0.30;;;;;;;10.81;71.28;95603.91;4331882;32;20212;-62
2022/12/26 10:18:22;;;;;;;0.20;0.20;;;;;;;10.87;70.33;95597.47;4313711;33;20182;-62
2022/12/26 10:21:10;;;;;;;0.50;0.30;;;;;;;10.90;70.26;95590.81;4341763;32;20290;-62
2022/12/26 10:23:44;;;;;;;0.93;0.83;;;;;;;10.89;70.53;95582.06;4345132;32;20208;-62
2022/12/26 10:26:29;;;;;;;1.90;0.73;;;;;;;10.98;70.12;95582.19;4330317;33;20180;-62
2022/12/26 10:29:06;;;;;;;0.00;0.00;;;;;;;11.04;69.56;95575.72;4345382;32;20185;-62
2022/12/26 10:31:45;;;;;;;0.67;0.30;;;;;;;11.05;70.05;95576.50;4358747;32;20185;-62
2022/12/26 10:34:17;;;;;;;0.40;0.40;;;;;;;11.11;69.54;95575.34;4342602;32;20225;-62
2022/12/26 10:36:48;;;;;;;0.33;0.30;;;;;;;11.19;69.07;95572.84;4349237;32;20172;-61
2022/12/26 10:39:19;;;;;;;0.53;0.53;;;;;;;11.29;68.93;95569.22;4353438;32;20190;-62
2022/12/26 10:41:49;;;;;;;0.30;0.30;;;;;;;11.25;69.33;95573.53;4327259;33;20297;-61
2022/12/26 10:44:15;;;;;;;0.10;0.10;;;;;;;11.34;68.74;95566.47;4327056;33;20182;-62
2022/12/26 10:46:59;;;;;;;0.17;0.17;;;;;;;11.41;68.61;95569.56;4316775;33;20262;-62
2022/12/26 10:49:26;;;;;;;0.20;0.20;;;;;;;11.50;68.33;95567.78;4326012;33;20223;-62
2022/12/26 10:51:54;;;;;;;0.20;0.20;;;;;;;11.56;68.37;95571.94;4310459;33;20254;-61
2022/12/26 10:54:19;;;;;;;0.67;0.60;;;;;;;11.58;68.42;95575.09;4318546;32;20220;-62
2022/12/26 10:56:48;;;;;;;0.37;0.33;;;;;;;11.60;68.19;95575.59;4330579;32;20200;-61
2022/12/26 10:59:22;;;;;;;0.70;0.70;;;;;;;11.64;68.16;95579.22;4325392;33;20197;-61
2022/12/26 11:01:48;;;;;;;0.33;0.33;;;;;;;11.71;68.16;95573.53;4329705;33;20189;-62
2022/12/26 11:04:22;;;;;;;0.47;0.47;;;;;;;11.77;68.05;95572.37;4330213;32;20216;-62
2022/12/26 11:06:51;;;;;;;0.10;0.10;;;;;;;11.84;67.82;95572.78;4324572;32;20265;-62
2022/12/26 11:09:39;;;;;;;1.53;0.27;;;;;;;11.85;68.85;95576.22;4338609;32;20186;-61
2022/12/26 11:12:41;;;;;;;0.30;0.30;;;;;;;11.92;67.55;95571.31;4316222;33;20204;-62
2022/12/26 11:15:38;;;;;;;0.30;0.13;;;;;;;11.96;67.31;95575.75;4302575;33;20223;-61
2022/12/26 11:18:18;;;;;;;0.20;0.20;;;;;;;12.01;67.37;95565.03;4305125;32;20208;-62
2022/12/26 11:20:44;;;;;;;0.20;0.20;;;;;;;12.09;66.98;95568.84;4334074;32;20223;-62
2022/12/26 11:23:24;;;;;;;0.10;0.10;;;;;;;12.15;67.05;95572.19;4329357;33;20190;-62
2022/12/26 11:25:55;;;;;;;0.43;0.43;;;;;;;12.16;67.29;95579.09;4325598;32;20207;-62
2022/12/26 11:28:38;;;;;;;0.57;0.57;;;;;;;12.17;66.94;95572.69;4358110;32;20234;-62
2022/12/26 11:31:06;;;;;;;0.30;0.30;;;;;;;12.19;67.36;95568.66;4346607;32;20196;-62
2022/12/26 11:33:40;;;;;;;0.17;0.17;;;;;;;12.21;67.36;95566.47;4344547;32;20181;-62
2022/12/26 11:36:14;;;;;;;0.53;0.53;;;;;;;12.21;67.36;95569.16;4344249;32;20199;-62
2022/12/26 11:38:49;;;;;;;0.40;0.40;;;;;;;12.22;67.44;95572.59;4344267;32;20486;-62
2022/12/26 11:41:35;;;;;;;0.57;0.57;;;;;;;12.21;67.63;95581.66;4344015;32;20193;-61
2022/12/26 11:44:09;;;;;;;0.60;0.60;;;;;;;12.22;68.19;95583.22;4342088;32;20217;-62
2022/12/26 11:46:41;;;;;;;0.50;0.50;;;;;;;12.25;67.27;95582.63;4325354;33;20203;-61
2022/12/26 11:49:18;;;;;;;0.40;0.33;;;;;;;12.23;68.26;95582.94;4325536;33;20235;-62
2022/12/26 11:51:45;;;;;;;0.37;0.37;;;;;;;12.29;67.57;95586.25;4325703;32;20189;-62
2022/12/26 11:54:48;;;;;;;0.20;0.20;;;;;;;12.28;67.88;95574.03;4326348;33;20229;-62
2022/12/26 11:57:26;;;;;;;0.20;0.20;;;;;;;12.33;68.24;95579.28;4296035;33;20173;-61
2022/12/26 11:59:52;;;;;;;0.47;0.47;;;;;;;12.44;67.77;95583.31;4304891;33;20189;-61
2022/12/26 12:02:17;;;;;;;0.40;0.40;;;;;;;12.42;67.98;95587.34;4322566;32;20208;-62
2022/12/26 12:04:44;;;;;;;0.30;0.20;;;;;;;12.39;69.42;95594.84;4324149;32;20229;-61
2022/12/26 12:07:39;;;;;;;0.20;0.20;;;;;;;12.56;67.66;95594.22;4313839;33;20181;-62
2022/12/26 12:10:25;;;;;;;0.10;0.10;;;;;;;12.69;68.15;95600.59;4329691;32;20223;-62
2022/12/26 12:13:13;;;;;;;0.30;0.30;;;;;;;12.70;67.78;95615.47;4344097;32;20189;-61
2022/12/26 12:15:57;;;;;;;0.50;0.50;;;;;;;12.86;67.97;95607.97;4327373;32;20192;-62
2022/12/26 12:18:39;;;;;;;0.30;0.30;;;;;;;12.91;69.81;95621.94;4343983;32;20264;-61
2022/12/26 12:21:10;;;;;;;0.43;0.43;;;;;;;12.80;72.08;95625.91;4330123;32;20182;-62
2022/12/26 12:23:57;;;;;;;0.20;0.20;;;;;;;12.80;72.49;95635.78;4338356;32;20189;-58
2022/12/26 12:26:32;;;;;;;4.87;1.20;;;;;;;12.74;74.05;95648.41;4339702;32;20190;-58
2022/12/26 12:29:32;;;;;;;0.47;0.47;;;;;;;12.61;75.52;95651.88;4328581;32;20215;-65
2022/12/26 12:32:16;;;;;;;0.50;0.50;;;;;;;12.50;77.88;95663.81;4312503;33;20177;-58
2022/12/26 12:35:00;;;;;;;1.20;0.57;;;;;;;12.42;79.27;95657.31;4322814;32;20182;-57
2022/12/26 12:37:48;;;;;;;0.20;0.20;;;;;;;12.31;81.08;95670.00;4329325;33;20194;-58
2022/12/26 12:40:22;;;;;;;0.30;0.30;;;;;;;12.14;83.19;95671.69;4329033;33;20239;-56
2022/12/26 12:42:53;;;;;;;1.10;0.63;;;;;;;11.99;85.49;95648.81;4329288;33;20182;-58
2022/12/26 12:45:32;;;;;;;0.40;0.40;;;;;;;11.84;87.31;95660.53;4317232;32;20268;-57
2022/12/26 12:48:22;;;;;;;0.47;0.47;;;;;;;11.66;89.41;95678.03;4341503;32;20190;-57
2022/12/26 12:51:06;;;;;;;0.33;0.33;;;;;;;11.55;91.29;95676.62;4326383;32;20280;-57
2022/12/26 12:54:19;;;;;;;0.50;0.50;;;;;;;11.54;91.14;95682.25;4341598;32;20203;-56
2022/12/26 12:57:06;;;;;;;0.60;0.60;;;;;;;11.33;92.02;95681.75;4321614;33;20193;-57
2022/12/26 13:00:02;;;;;;;0.93;0.70;;;;;;;11.29;91.82;95688.72;4337554;32;20200;-58
2022/12/26 13:02:41;;;;;;;0.80;0.80;;;;;;;11.21;92.32;95698.16;4318981;32;20211;-57
2022/12/26 13:05:15;;;;;;;0.80;0.80;;;;;;;11.11;93.55;95703.59;4322063;33;20193;-57
2022/12/26 13:07:47;;;;;;;0.70;0.70;;;;;;;10.99;93.97;95719.94;4324425;32;20226;-57
2022/12/26 13:10:24;;;;;;;0.30;0.30;;;;;;;10.87;95.31;95713.47;4327268;33;20204;-57
2022/12/26 13:12:50;;;;;;;0.80;0.80;;;;;;;10.87;96.20;95724.06;4343901;32;20330;-57
2022/12/26 13:15:28;;;;;;;0.73;0.73;;;;;;;10.80;96.99;95721.78;4340963;32;20189;-57
2022/12/26 13:18:04;;;;;;;0.50;0.50;;;;;;;10.79;97.19;95717.56;4341337;32;20229;-56
2022/12/26 13:20:35;;;;;;;0.80;0.80;;;;;;;10.79;97.28;95717.56;4358359;32;20207;-58
2022/12/26 13:26:12;;;;;;;0.50;0.50;;;;;;;10.62;99.31;95714.56;4328599;32;20191;-57
2022/12/26 13:28:51;;;;;;;0.80;0.80;;;;;;;10.79;98.86;95712.25;4340939;32;20189;-57
2022/12/26 13:31:17;;;;;;;1.40;1.30;;;;;;;10.78;98.62;95718.63;4330892;32;20182;-58
2022/12/26 13:33:43;;;;;;;1.30;0.87;;;;;;;10.62;99.24;95715.34;4330413;33;20196;-57
2022/12/26 13:36:09;;;;;;;1.10;1.10;;;;;;;10.62;99.93;95725.16;4330746;32;20219;-58
2022/12/26 13:39:00;;;;;;;0.50;0.50;;;;;;;10.63;99.91;95735.50;4342863;32;20243;-57
2022/12/26 13:44:19;;;;;;;0.67;0.67;;;;;;;10.56;100.00;95742.25;4345687;32;20274;-57
2022/12/26 13:46:45;;;;;;;1.13;1.13;;;;;;;10.42;100.00;95733.34;4343298;32;20232;-58
2022/12/26 13:49:39;;;;;;;0.60;0.60;;;;;;;10.24;100.00;95738.31;4339005;32;20225;-57
2022/12/26 13:52:10;;;;;;;2.17;0.80;;;;;;;10.30;100.00;95742.50;4329758;32;20269;-58
2022/12/26 13:54:50;;;;;;;0.77;0.77;;;;;;;10.36;100.00;95734.50;4272874;32;20194;-58
2022/12/26 13:57:41;;;;;;;0.67;0.67;;;;;;;10.39;100.00;95739.25;4340550;32;20263;-57
2022/12/26 14:00:09;;;;;;;0.77;0.63;;;;;;;10.35;100.00;95739.00;4344062;32;20256;-56
2022/12/26 14:03:08;;;;;;;0.87;0.87;;;;;;;10.38;100.00;95743.75;4341477;32;20242;-57
2022/12/26 14:05:43;;;;;;;0.30;0.30;;;;;;;10.33;100.00;95741.94;4330049;32;20243;-58
2022/12/26 14:08:17;;;;;;;0.60;0.60;;;;;;;10.33;100.00;95744.59;4344410;32;20176;-57